Time;durP1;ratioP1;P1;durP2;ratioP2;P2;SDS_P1;SDS_P2;PMS_P1;PMS_P2;Temp;Humidity;BMP_temperature;BMP_pressure;BME280_temperature;BME280_humidity;BME280_pressure;Samples;Min_cycle;Max_cycle;Signal;HPM_P1;HPM_P2
2023/05/18 00:02:00;;;;;;;10.13;2.40;;;9.40;96.50;;;;;;5086459;28;20118;-58
2023/05/18 00:04:27;;;;;;;7.22;2.22;;;9.30;96.60;;;;;;5086215;28;20028;-57
2023/05/18 00:06:57;;;;;;;8.45;2.55;;;9.30;96.60;;;;;;5085882;28;20044;-58
2023/05/18 00:09:24;;;;;;;8.43;2.30;;;9.20;96.70;;;;;;5085775;28;20437;-53
2023/05/18 00:11:50;;;;;;;9.77;2.50;;;9.20;96.80;;;;;;5085393;28;20122;-58
2023/05/18 00:14:16;;;;;;;8.98;2.65;;;9.20;97.20;;;;;;5084939;28;20126;-58
2023/05/18 00:16:42;;;;;;;8.35;2.30;;;9.20;97.50;;;;;;5085128;28;20036;-55
2023/05/18 00:19:07;;;;;;;6.20;2.08;;;9.10;97.50;;;;;;5085760;28;20040;-56
2023/05/18 00:21:34;;;;;;;7.07;1.80;;;9.00;97.30;;;;;;5085213;28;20838;-57
2023/05/18 00:24:00;;;;;;;10.38;2.30;;;9.10;97.30;;;;;;5085346;28;20044;-57
2023/05/18 00:26:26;;;;;;;7.75;2.30;;;9.00;97.60;;;;;;5085406;28;20050;-54
2023/05/18 00:28:51;;;;;;;8.88;2.38;;;9.00;97.90;;;;;;5084772;28;20048;-56
2023/05/18 00:31:17;;;;;;;9.52;2.30;;;8.90;98.50;;;;;;5085405;28;20136;-51
2023/05/18 00:33:44;;;;;;;8.25;1.92;;;8.90;98.50;;;;;;5085417;28;20470;-57
2023/05/18 00:36:10;;;;;;;7.57;2.03;;;8.80;98.70;;;;;;5085361;28;20051;-54
2023/05/18 00:38:36;;;;;;;8.65;2.08;;;8.80;98.70;;;;;;5085495;28;20044;-57
2023/05/18 00:41:02;;;;;;;7.85;2.08;;;8.80;98.30;;;;;;5085733;28;20552;-58
2023/05/18 00:43:27;;;;;;;7.20;2.10;;;8.90;97.90;;;;;;5085918;28;20077;-58
2023/05/18 00:45:53;;;;;;;7.35;2.28;;;8.90;97.80;;;;;;5084480;28;20089;-56
2023/05/18 00:48:18;;;;;;;6.22;1.75;;;8.90;97.90;;;;;;5084652;28;20044;-58
2023/05/18 00:50:45;;;;;;;7.60;2.17;;;8.90;98.10;;;;;;5085148;28;20039;-55
2023/05/18 00:53:10;;;;;;;7.78;2.05;;;8.90;98.20;;;;;;5085139;28;20048;-57
2023/05/18 00:55:37;;;;;;;11.68;2.33;;;8.90;98.30;;;;;;5085014;28;20423;-53
2023/05/18 00:58:04;;;;;;;10.10;2.00;;;8.90;98.40;;;;;;5085288;28;20032;-57
2023/05/18 01:00:30;;;;;;;9.52;2.40;;;8.90;98.60;;;;;;5084869;28;20084;-53
2023/05/18 01:02:56;;;;;;;6.78;2.03;;;8.90;98.80;;;;;;5085158;28;20040;-56
2023/05/18 01:05:22;;;;;;;8.45;2.40;;;8.90;98.80;;;;;;5084660;28;20043;-55
2023/05/18 01:07:49;;;;;;;10.63;2.13;;;8.90;98.70;;;;;;5085103;28;20511;-58
2023/05/18 01:10:17;;;;;;;13.05;2.70;;;8.80;98.70;;;;;;5066916;28;20078;-54
2023/05/18 01:12:55;;;;;;;6.53;2.13;;;8.90;98.90;;;;;;5084717;28;20071;-56
2023/05/18 01:15:49;;;;;;;10.68;2.33;;;8.80;98.90;;;;;;5084190;28;20040;-57
2023/05/18 01:18:47;;;;;;;6.28;2.10;;;8.80;99.00;;;;;;5082873;28;20659;-57
2023/05/18 01:21:51;;;;;;;10.43;2.08;;;9.00;99.10;;;;;;5084265;28;20054;-57
2023/05/18 01:24:30;;;;;;;11.27;2.45;;;8.80;99.10;;;;;;5021582;28;20420;-51
2023/05/18 01:26:59;;;;;;;10.15;2.42;;;8.80;99.20;;;;;;5077354;28;20096;-58
2023/05/18 01:29:28;;;;;;;8.35;2.20;;;8.80;98.80;;;;;;5084277;28;20060;-57
2023/05/18 01:31:53;;;;;;;10.73;2.53;;;8.80;98.20;;;;;;5084431;28;20395;-58
2023/05/18 01:34:19;;;;;;;6.32;2.05;;;8.70;98.30;;;;;;5084998;28;20040;-58
2023/05/18 01:36:45;;;;;;;9.25;2.38;;;8.70;98.60;;;;;;5084858;28;20310;-57
2023/05/18 01:39:10;;;;;;;10.43;2.10;;;8.80;98.70;;;;;;5084358;28;20431;-54
2023/05/18 01:41:42;;;;;;;8.07;2.03;;;8.70;98.80;;;;;;5084924;28;20477;-55
2023/05/18 01:44:16;;;;;;;8.75;2.42;;;8.70;99.00;;;;;;5084349;28;20047;-55
2023/05/18 01:46:55;;;;;;;11.25;2.15;;;8.70;99.10;;;;;;5069638;28;20130;-57
2023/05/18 01:49:40;;;;;;;9.45;2.55;;;8.70;99.30;;;;;;5088353;28;20040;-58
2023/05/18 01:52:10;;;;;;;5.83;2.33;;;8.70;99.40;;;;;;5088704;28;20050;-58
2023/05/18 01:54:43;;;;;;;7.38;2.15;;;8.90;99.30;;;;;;5088498;28;20337;-53
2023/05/18 01:57:10;;;;;;;10.05;2.25;;;8.60;98.90;;;;;;5087859;28;20093;-58
2023/05/18 01:59:37;;;;;;;10.82;2.45;;;8.70;98.90;;;;;;5087727;28;20135;-58
2023/05/18 02:02:03;;;;;;;7.85;1.90;;;8.60;98.90;;;;;;5070036;28;20474;-55
2023/05/18 02:04:29;;;;;;;8.35;2.03;;;8.60;98.90;;;;;;5088183;28;20340;-53
2023/05/18 02:06:55;;;;;;;5.97;2.35;;;8.70;99.00;;;;;;5087887;28;20044;-56
2023/05/18 02:09:21;;;;;;;6.55;2.13;;;8.70;98.90;;;;;;5088042;28;20044;-52
2023/05/18 02:11:48;;;;;;;9.20;2.47;;;8.60;98.90;;;;;;5088005;28;20700;-57
2023/05/18 02:14:14;;;;;;;6.15;2.30;;;8.60;99.10;;;;;;5086853;28;20047;-58
2023/05/18 02:16:39;;;;;;;8.80;2.47;;;8.50;99.10;;;;;;5087662;28;20435;-57
2023/05/18 02:19:05;;;;;;;9.77;2.20;;;8.50;99.20;;;;;;5088348;28;20115;-57
2023/05/18 02:21:34;;;;;;;7.30;2.15;;;8.50;99.30;;;;;;5086868;28;20418;-57
2023/05/18 02:23:59;;;;;;;5.95;2.10;;;8.50;99.30;;;;;;5087929;28;20048;-56
2023/05/18 02:26:26;;;;;;;8.90;2.13;;;8.50;99.30;;;;;;5069587;28;20048;-57
2023/05/18 02:28:52;;;;;;;5.18;2.03;;;8.50;99.50;;;;;;5086731;28;20052;-54
2023/05/18 02:31:17;;;;;;;6.20;2.13;;;8.50;99.90;;;;;;5087650;28;20051;-55
2023/05/18 02:33:43;;;;;;;14.65;2.72;;;8.50;99.90;;;;;;5087839;28;20426;-56
2023/05/18 02:36:13;;;;;;;10.68;2.60;;;8.60;99.90;;;;;;5087569;28;20075;-56
2023/05/18 02:38:41;;;;;;;11.35;2.53;;;8.60;99.90;;;;;;5087353;28;20052;-58
2023/05/18 02:41:07;;;;;;;8.48;2.45;;;8.50;99.80;;;;;;5087712;28;20380;-58
2023/05/18 02:43:33;;;;;;;8.73;2.50;;;8.50;99.80;;;;;;5086676;28;20043;-55
2023/05/18 02:45:59;;;;;;;8.05;2.28;;;8.50;99.90;;;;;;5068433;28;20059;-57
2023/05/18 02:48:25;;;;;;;7.22;2.17;;;8.70;99.90;;;;;;5087388;28;20040;-56
2023/05/18 02:50:51;;;;;;;8.65;2.28;;;8.60;99.90;;;;;;5069133;28;20059;-57
2023/05/18 02:53:17;;;;;;;10.23;2.30;;;8.40;99.90;;;;;;5086681;28;20146;-57
2023/05/18 02:55:42;;;;;;;7.45;2.13;;;8.50;99.90;;;;;;5086862;28;20118;-58
2023/05/18 02:58:09;;;;;;;7.45;1.88;;;8.40;99.90;;;;;;5086412;28;20402;-56
2023/05/18 03:00:34;;;;;;;11.98;2.67;;;8.50;99.90;;;;;;5086329;28;20146;-58
2023/05/18 03:03:01;;;;;;;8.98;2.22;;;8.40;99.90;;;;;;5086572;28;20126;-59
2023/05/18 03:05:27;;;;;;;7.65;2.10;;;8.50;99.90;;;;;;5068725;28;20048;-54
2023/05/18 03:07:53;;;;;;;9.32;2.22;;;8.30;99.90;;;;;;5087202;28;20051;-58
2023/05/18 03:10:20;;;;;;;8.15;2.17;;;8.30;99.90;;;;;;5086485;28;20035;-57
2023/05/18 03:12:46;;;;;;;9.35;2.20;;;8.30;99.90;;;;;;5086828;28;20050;-58
2023/05/18 03:15:14;;;;;;;8.70;2.35;;;8.40;99.90;;;;;;5085687;28;20040;-57
2023/05/18 03:17:41;;;;;;;6.38;1.83;;;8.30;99.90;;;;;;5068487;28;20067;-58
2023/05/18 03:20:10;;;;;;;9.52;2.38;;;8.30;99.90;;;;;;5086757;28;20126;-58
2023/05/18 03:22:37;;;;;;;9.25;1.98;;;8.30;99.90;;;;;;5087004;28;20621;-57
2023/05/18 03:25:04;;;;;;;7.30;2.15;;;8.30;99.90;;;;;;5086250;28;20048;-55
2023/05/18 03:27:30;;;;;;;12.07;2.45;;;8.20;99.90;;;;;;5086413;28;20456;-59
2023/05/18 03:29:56;;;;;;;8.32;2.10;;;8.20;99.90;;;;;;5085917;28;20036;-58
2023/05/18 03:32:23;;;;;;;9.20;2.42;;;8.20;99.90;;;;;;5086340;28;20051;-57
2023/05/18 03:34:50;;;;;;;8.32;2.22;;;8.20;99.90;;;;;;5067710;28;20083;-58
2023/05/18 03:37:16;;;;;;;8.18;2.38;;;8.20;99.90;;;;;;5086106;28;20480;-56
2023/05/18 03:39:42;;;;;;;8.30;2.03;;;8.20;99.90;;;;;;5085865;28;20044;-55
2023/05/18 03:42:08;;;;;;;9.52;2.60;;;8.30;99.90;;;;;;5068068;28;20480;-56
2023/05/18 03:44:34;;;;;;;9.95;2.90;;;8.30;99.90;;;;;;5067258;28;20044;-57
2023/05/18 03:46:59;;;;;;;10.13;2.15;;;8.30;99.90;;;;;;5086221;28;20131;-58
2023/05/18 03:49:25;;;;;;;10.32;2.92;;;8.30;99.90;;;;;;5086025;28;20044;-54
2023/05/18 03:51:53;;;;;;;10.45;2.35;;;8.30;99.90;;;;;;5086323;28;20502;-56
2023/05/18 03:54:19;;;;;;;8.95;2.25;;;8.40;99.90;;;;;;5086010;28;20535;-57
2023/05/18 03:56:45;;;;;;;7.72;2.30;;;8.30;99.90;;;;;;5085680;28;20047;-55
2023/05/18 03:59:12;;;;;;;10.60;1.80;;;8.20;99.90;;;;;;5085554;28;20120;-57
2023/05/18 04:01:40;;;;;;;9.48;2.08;;;8.20;99.90;;;;;;5086149;28;20055;-55
2023/05/18 04:04:07;;;;;;;9.30;2.22;;;8.20;99.90;;;;;;5067593;28;20042;-52
2023/05/18 04:06:34;;;;;;;7.60;2.17;;;8.20;99.90;;;;;;5085402;28;20039;-56
2023/05/18 04:09:03;;;;;;;6.65;1.95;;;8.60;99.90;;;;;;5085460;28;20087;-57
2023/05/18 04:11:30;;;;;;;9.82;1.85;;;8.30;99.90;;;;;;5085817;28;20141;-56
2023/05/18 04:13:59;;;;;;;7.65;2.25;;;8.30;99.90;;;;;;5084677;28;20044;-59
2023/05/18 04:16:26;;;;;;;8.63;2.30;;;8.30;99.90;;;;;;5085752;28;20227;-55
2023/05/18 04:18:52;;;;;;;10.05;2.25;;;8.40;99.90;;;;;;5085691;28;20047;-58
2023/05/18 04:21:18;;;;;;;9.13;2.33;;;8.40;99.90;;;;;;5084917;28;20206;-56
2023/05/18 04:23:44;;;;;;;9.07;2.40;;;8.40;99.90;;;;;;5085928;28;20395;-55
2023/05/18 04:26:09;;;;;;;7.72;2.17;;;8.40;99.90;;;;;;5070097;28;20411;-56
2023/05/18 04:28:36;;;;;;;10.68;3.30;;;8.60;99.90;;;;;;5064285;28;20111;-57
2023/05/18 04:31:02;;;;;;;8.32;2.45;;;8.40;99.90;;;;;;5065213;28;20086;-50
2023/05/18 04:33:28;;;;;;;5.85;1.90;;;8.40;99.90;;;;;;5065232;28;20183;-58
2023/05/18 04:35:54;;;;;;;9.73;2.25;;;8.40;99.90;;;;;;5065048;28;20044;-55
2023/05/18 04:38:23;;;;;;;7.43;2.38;;;8.50;99.90;;;;;;5064751;28;20055;-58
2023/05/18 04:40:49;;;;;;;13.68;2.53;;;8.50;99.90;;;;;;5065121;28;20134;-58
2023/05/18 04:43:17;;;;;;;9.52;2.50;;;8.60;99.90;;;;;;5065381;28;20072;-58
2023/05/18 04:45:46;;;;;;;11.02;2.72;;;8.60;99.90;;;;;;5046805;28;20123;-57
2023/05/18 04:48:13;;;;;;;6.57;2.08;;;8.70;99.90;;;;;;5065504;28;20446;-58
2023/05/18 04:50:39;;;;;;;9.32;2.15;;;8.70;99.90;;;;;;5065299;28;20415;-59
2023/05/18 04:53:07;;;;;;;8.35;2.35;;;8.80;99.80;;;;;;5064565;28;20055;-57
2023/05/18 04:55:34;;;;;;;11.13;2.10;;;8.90;99.70;;;;;;5065065;28;20051;-57
2023/05/18 04:58:00;;;;;;;8.13;2.42;;;8.80;99.10;;;;;;5064905;28;20040;-58
2023/05/18 05:00:27;;;;;;;7.25;2.03;;;8.90;98.40;;;;;;5064421;28;20604;-58
2023/05/18 05:02:54;;;;;;;11.00;2.47;;;9.00;98.40;;;;;;5064852;28;20083;-55
2023/05/18 05:05:24;;;;;;;13.40;2.10;;;9.00;98.40;;;;;;5064829;28;20127;-57
2023/05/18 05:07:51;;;;;;;10.35;2.10;;;9.00;98.50;;;;;;5064911;28;20110;-59
2023/05/18 05:10:18;;;;;;;7.60;2.30;;;9.00;98.60;;;;;;5065382;28;20090;-53
2023/05/18 05:12:44;;;;;;;9.23;2.47;;;9.00;98.50;;;;;;5047382;28;20135;-57
2023/05/18 05:15:09;;;;;;;8.65;2.30;;;9.10;98.20;;;;;;5063925;28;20036;-58
2023/05/18 05:17:35;;;;;;;8.57;2.20;;;9.10;98.20;;;;;;5084632;28;20040;-58
2023/05/18 05:20:04;;;;;;;9.57;2.25;;;9.10;98.40;;;;;;5085779;28;20082;-57
2023/05/18 05:22:30;;;;;;;7.85;1.92;;;9.10;98.20;;;;;;5088971;28;20048;-56
2023/05/18 05:24:56;;;;;;;5.72;2.13;;;9.20;98.10;;;;;;5088629;28;20509;-58
2023/05/18 05:27:22;;;;;;;8.95;2.22;;;9.10;98.00;;;;;;5088931;28;20554;-56
2023/05/18 05:29:49;;;;;;;11.68;2.60;;;9.20;97.90;;;;;;5088472;28;20093;-58
2023/05/18 05:32:15;;;;;;;8.23;1.80;;;9.20;98.00;;;;;;5088704;28;20050;-55
2023/05/18 05:34:45;;;;;;;8.38;2.03;;;9.30;98.00;;;;;;5088668;28;20525;-59
2023/05/18 05:37:11;;;;;;;8.13;2.00;;;9.30;97.70;;;;;;5088982;28;20047;-56
2023/05/18 05:39:37;;;;;;;9.45;2.22;;;9.50;97.50;;;;;;5088139;28;20096;-55
2023/05/18 05:42:03;;;;;;;10.23;1.98;;;9.30;97.50;;;;;;5088548;28;20451;-58
2023/05/18 05:44:28;;;;;;;6.05;1.70;;;9.40;97.30;;;;;;5087749;28;20060;-59
2023/05/18 05:46:54;;;;;;;7.15;1.98;;;9.50;97.40;;;;;;5088377;28;20410;-59
2023/05/18 05:49:20;;;;;;;7.60;1.83;;;9.40;97.00;;;;;;5088187;28;20035;-54
2023/05/18 05:51:45;;;;;;;10.20;2.47;;;9.40;97.10;;;;;;5088959;28;20120;-57
2023/05/18 05:54:11;;;;;;;6.93;1.92;;;9.50;97.10;;;;;;5088387;28;20047;-58
2023/05/18 05:56:36;;;;;;;8.98;1.95;;;9.50;97.10;;;;;;5087781;28;20040;-55
2023/05/18 05:59:02;;;;;;;11.35;2.10;;;9.60;96.80;;;;;;5087460;28;20118;-58
2023/05/18 06:01:28;;;;;;;7.82;2.08;;;9.50;96.70;;;;;;5087967;28;20051;-57
2023/05/18 06:03:53;;;;;;;5.10;1.92;;;9.60;96.80;;;;;;5087893;28;20040;-58
2023/05/18 06:06:20;;;;;;;6.30;1.80;;;9.70;97.00;;;;;;5087730;28;20603;-56
2023/05/18 06:08:45;;;;;;;7.38;2.15;;;9.70;96.90;;;;;;5088036;28;20044;-57
2023/05/18 06:11:11;;;;;;;5.68;1.90;;;9.80;96.90;;;;;;5088089;28;20177;-57
2023/05/18 06:13:37;;;;;;;6.82;2.20;;;9.90;96.80;;;;;;5070958;28;20098;-58
2023/05/18 06:16:03;;;;;;;8.60;2.25;;;10.00;96.90;;;;;;5068156;28;20044;-59
2023/05/18 06:18:29;;;;;;;8.93;2.03;;;10.10;96.60;;;;;;5067401;28;20041;-58
2023/05/18 06:20:55;;;;;;;9.82;2.25;;;10.10;96.40;;;;;;5066700;28;20052;-59
2023/05/18 06:23:22;;;;;;;12.15;2.10;;;10.10;96.50;;;;;;5067758;28;20064;-58
2023/05/18 06:25:48;;;;;;;7.18;1.95;;;10.20;96.50;;;;;;5067972;28;20055;-59
2023/05/18 06:28:14;;;;;;;7.80;2.17;;;10.40;96.10;;;;;;5066540;28;20036;-57
2023/05/18 06:30:40;;;;;;;9.10;2.22;;;10.50;95.80;;;;;;5066944;28;20033;-58
2023/05/18 06:33:06;;;;;;;5.90;1.80;;;10.40;95.70;;;;;;5049683;28;20401;-59
2023/05/18 06:35:33;;;;;;;9.75;2.22;;;10.40;95.70;;;;;;5067237;28;20047;-55
2023/05/18 06:37:58;;;;;;;9.23;2.08;;;10.50;95.60;;;;;;5067221;28;20048;-57
2023/05/18 06:40:24;;;;;;;6.47;2.10;;;10.50;95.80;;;;;;5049316;28;20484;-55
2023/05/18 06:42:50;;;;;;;11.45;1.98;;;10.50;95.20;;;;;;5066817;28;20040;-53
2023/05/18 06:45:16;;;;;;;6.93;2.03;;;10.50;95.10;;;;;;5066777;28;20525;-58
2023/05/18 06:47:42;;;;;;;8.27;2.10;;;10.50;95.00;;;;;;5066898;28;20083;-56
2023/05/18 06:50:08;;;;;;;6.70;2.17;;;10.60;95.30;;;;;;5067522;28;20464;-59
2023/05/18 06:52:34;;;;;;;11.10;1.95;;;10.50;95.20;;;;;;5067071;28;20054;-57
2023/05/18 06:55:00;;;;;;;5.05;1.73;;;10.50;95.20;;;;;;5048549;28;20040;-58
2023/05/18 06:57:26;;;;;;;8.23;2.13;;;10.50;95.20;;;;;;5066814;28;20181;-59
2023/05/18 06:59:52;;;;;;;8.65;2.25;;;10.50;95.30;;;;;;5066449;28;20044;-58
2023/05/18 07:02:21;;;;;;;6.80;1.95;;;10.60;95.20;;;;;;5066241;28;20595;-58
2023/05/18 07:04:48;;;;;;;7.07;1.85;;;10.60;95.00;;;;;;5066833;28;20425;-57
2023/05/18 07:07:15;;;;;;;7.35;2.08;;;10.60;95.10;;;;;;5048765;28;20135;-58
2023/05/18 07:09:43;;;;;;;9.05;2.40;;;10.70;95.00;;;;;;5066078;28;20086;-57
2023/05/18 07:12:09;;;;;;;9.27;2.30;;;10.80;94.90;;;;;;5048722;28;20052;-58
2023/05/18 07:14:35;;;;;;;8.93;2.10;;;10.90;94.40;;;;;;5065755;28;20055;-58
2023/05/18 07:17:01;;;;;;;9.30;2.55;;;11.10;94.30;;;;;;5066439;28;20097;-51
2023/05/18 07:19:26;;;;;;;9.00;2.08;;;11.40;94.40;;;;;;5066413;28;20522;-57
2023/05/18 07:21:52;;;;;;;7.88;2.10;;;12.00;93.90;;;;;;5066352;28;20523;-56
2023/05/18 07:24:18;;;;;;;10.07;2.35;;;12.60;93.40;;;;;;5066382;28;20518;-55
2023/05/18 07:26:44;;;;;;;5.97;1.90;;;13.10;92.80;;;;;;5065770;28;20052;-56
2023/05/18 07:29:10;;;;;;;8.20;1.80;;;13.30;92.50;;;;;;5065428;28;20402;-57
2023/05/18 07:31:39;;;;;;;6.63;2.00;;;13.40;92.10;;;;;;5065829;28;20461;-56
2023/05/18 07:34:05;;;;;;;7.93;1.90;;;13.30;92.20;;;;;;5065983;28;20059;-58
2023/05/18 07:36:30;;;;;;;5.95;1.92;;;13.20;92.50;;;;;;5066054;28;20037;-59
2023/05/18 07:38:56;;;;;;;9.90;1.90;;;13.20;92.30;;;;;;5065990;28;20053;-54
2023/05/18 07:41:22;;;;;;;7.53;1.90;;;13.00;92.00;;;;;;5066497;28;20413;-58
2023/05/18 07:43:48;;;;;;;8.38;2.03;;;13.00;92.10;;;;;;5064158;28;20048;-56
2023/05/18 07:46:14;;;;;;;6.70;1.90;;;13.00;91.90;;;;;;5066021;28;20044;-59
2023/05/18 07:48:40;;;;;;;4.80;1.85;;;13.10;92.00;;;;;;5048056;28;20048;-58
2023/05/18 07:51:06;;;;;;;7.15;2.10;;;13.10;91.80;;;;;;5065595;28;20052;-59
2023/05/18 07:53:31;;;;;;;6.32;2.05;;;13.10;92.00;;;;;;5065759;28;20037;-57
2023/05/18 07:55:57;;;;;;;6.97;1.92;;;13.10;91.40;;;;;;5065659;28;20053;-55
2023/05/18 07:58:23;;;;;;;7.85;1.92;;;13.10;91.60;;;;;;5065111;28;20054;-53
2023/05/18 08:00:48;;;;;;;10.27;2.22;;;13.50;91.50;;;;;;5047501;28;20048;-56
2023/05/18 08:03:14;;;;;;;5.53;1.88;;;13.70;91.40;;;;;;5047945;28;20041;-55
2023/05/18 08:05:40;;;;;;;8.85;2.03;;;13.90;91.60;;;;;;5065489;28;20144;-56
2023/05/18 08:08:07;;;;;;;7.18;2.00;;;14.00;91.50;;;;;;5065286;28;20399;-58
2023/05/18 08:10:32;;;;;;;7.72;1.90;;;14.00;91.40;;;;;;5065405;28;20086;-58
2023/05/18 08:12:58;;;;;;;8.82;2.03;;;14.00;91.60;;;;;;5064595;28;20467;-59
2023/05/18 08:15:24;;;;;;;7.32;1.80;;;14.20;91.70;;;;;;5065596;28;20072;-58
2023/05/18 08:17:51;;;;;;;5.63;1.65;;;14.40;91.70;;;;;;5065664;28;20539;-58
2023/05/18 08:20:16;;;;;;;6.53;1.95;;;14.60;91.10;;;;;;5065228;28;20107;-58
2023/05/18 08:22:42;;;;;;;6.55;1.85;;;14.50;90.70;;;;;;5065237;28;20075;-56
2023/05/18 08:25:09;;;;;;;5.50;1.90;;;14.50;91.00;;;;;;5064613;28;20840;-59
2023/05/18 08:27:34;;;;;;;6.68;1.73;;;14.60;91.30;;;;;;5064816;28;20113;-58
2023/05/18 08:30:00;;;;;;;7.93;2.10;;;14.60;90.90;;;;;;5065355;28;20441;-58
2023/05/18 08:32:26;;;;;;;6.15;1.85;;;14.40;91.40;;;;;;5065310;28;20044;-56
2023/05/18 08:34:53;;;;;;;6.93;1.70;;;14.30;91.70;;;;;;5065414;28;20090;-56
2023/05/18 08:37:19;;;;;;;6.60;2.10;;;14.30;91.90;;;;;;5065201;28;20411;-58
2023/05/18 08:39:45;;;;;;;5.50;1.70;;;14.30;91.70;;;;;;5065080;28;20045;-55
2023/05/18 08:42:19;;;;;;;7.90;2.03;;;14.30;91.80;;;;;;5047106;28;20076;-56
2023/05/18 08:44:48;;;;;;;;;;;14.30;91.80;;;;;;5064831;28;20083;-54
2023/05/18 08:47:16;;;;;;;5.75;1.70;;;14.40;91.20;;;;;;5064519;28;19931;-57
2023/05/18 08:49:42;;;;;;;10.35;2.25;;;14.40;92.00;;;;;;5065014;28;20052;-56
2023/05/18 08:52:08;;;;;;;3.65;1.40;;;14.40;91.70;;;;;;5064980;28;20524;-56
2023/05/18 08:54:36;;;;;;;6.55;1.58;;;14.40;92.10;;;;;;5066614;28;20049;-59
2023/05/18 08:57:08;;;;;;;5.25;1.80;;;14.30;91.90;;;;;;5069153;28;20399;-56
2023/05/18 08:59:40;;;;;;;7.53;2.05;;;14.20;92.00;;;;;;5068529;28;20048;-54
2023/05/18 09:02:05;;;;;;;7.55;1.90;;;14.00;92.40;;;;;;5068747;28;20053;-54
2023/05/18 09:04:33;;;;;;;5.60;1.75;;;14.00;92.50;;;;;;5069154;28;20067;-55
2023/05/18 09:07:01;;;;;;;5.72;1.80;;;14.20;92.50;;;;;;5069050;28;20052;-55
2023/05/18 09:09:28;;;;;;;7.18;2.00;;;14.40;92.20;;;;;;5068477;28;20509;-54
2023/05/18 09:11:55;;;;;;;6.90;1.80;;;14.60;92.00;;;;;;5068802;28;20044;-55
2023/05/18 09:14:24;;;;;;;6.72;2.00;;;14.70;91.90;;;;;;5066721;28;20044;-55
2023/05/18 09:16:54;;;;;;;5.53;1.98;;;14.60;92.10;;;;;;5087392;28;20059;-50
2023/05/18 09:19:19;;;;;;;7.18;2.05;;;14.60;92.00;;;;;;5088467;28;20063;-56
2023/05/18 09:21:45;;;;;;;5.50;1.80;;;14.60;92.00;;;;;;5051289;28;20049;-52
2023/05/18 09:24:12;;;;;;;6.07;2.25;;;14.70;92.20;;;;;;5076880;28;20117;-53
2023/05/18 09:26:37;;;;;;;7.40;1.90;;;14.90;92.00;;;;;;5088150;28;20036;-52
2023/05/18 09:29:15;;;;;;;7.10;1.90;;;14.80;91.60;;;;;;5087458;28;20043;-55
2023/05/18 09:31:40;;;;;;;5.03;1.90;;;14.90;91.50;;;;;;5070171;28;20475;-54
2023/05/18 09:34:06;;;;;;;6.70;2.20;;;15.10;92.20;;;;;;5067701;28;20127;-54
2023/05/18 09:36:33;;;;;;;5.35;1.95;;;15.20;91.90;;;;;;5067835;28;20427;-56
2023/05/18 09:38:58;;;;;;;5.05;1.80;;;15.30;92.20;;;;;;5068650;28;20071;-56
2023/05/18 09:41:25;;;;;;;6.65;1.77;;;15.40;91.90;;;;;;5067698;28;20565;-56
2023/05/18 09:43:51;;;;;;;8.23;2.28;;;15.60;91.60;;;;;;5067454;28;20403;-56
2023/05/18 09:46:17;;;;;;;5.85;1.77;;;15.60;91.20;;;;;;5067778;28;20075;-52
2023/05/18 09:48:47;;;;;;;7.95;2.20;;;15.70;91.20;;;;;;5067824;28;20505;-55
2023/05/18 09:51:17;;;;;;;8.60;1.98;;;15.70;91.10;;;;;;5049717;28;20515;-55
2023/05/18 09:53:56;;;;;;;5.80;1.80;;;15.50;90.70;;;;;;5067667;28;20407;-57
2023/05/18 09:56:23;;;;;;;5.22;1.77;;;15.40;90.90;;;;;;5067264;28;20044;-55
2023/05/18 09:58:48;;;;;;;8.52;2.25;;;15.30;91.40;;;;;;5048938;28;20372;-51
2023/05/18 10:01:14;;;;;;;6.18;1.98;;;15.20;91.00;;;;;;5067252;28;20052;-55
2023/05/18 10:03:40;;;;;;;5.65;2.00;;;15.20;91.20;;;;;;5091461;28;20050;-55
2023/05/18 10:06:07;;;;;;;5.55;2.08;;;15.20;91.20;;;;;;5107596;28;20156;-55
2023/05/18 10:08:34;;;;;;;7.18;1.88;;;15.60;91.30;;;;;;5105095;28;20032;-57
2023/05/18 10:11:00;;;;;;;6.03;1.70;;;16.00;91.40;;;;;;5069334;28;20050;-54
2023/05/18 10:13:28;;;;;;;9.65;2.40;;;16.50;91.40;;;;;;5082446;28;20032;-53
2023/05/18 10:16:02;;;;;;;6.70;1.80;;;16.90;91.20;;;;;;5049257;28;20044;-56
2023/05/18 10:18:34;;;;;;;6.43;1.98;;;17.30;90.00;;;;;;5067033;28;20054;-53
2023/05/18 10:21:02;;;;;;;4.97;1.77;;;17.50;90.10;;;;;;5067120;28;20048;-56
2023/05/18 10:23:33;;;;;;;6.40;1.90;;;17.60;90.50;;;;;;5066936;28;20048;-56
2023/05/18 10:25:59;;;;;;;9.13;2.10;;;17.80;90.10;;;;;;5067136;28;20442;-49
2023/05/18 10:28:29;;;;;;;4.82;1.83;;;17.50;89.90;;;;;;5082890;28;20044;-54
2023/05/18 10:30:57;;;;;;;4.95;1.70;;;17.20;90.10;;;;;;5084678;28;20441;-56
2023/05/18 10:33:29;;;;;;;6.97;1.98;;;17.00;90.30;;;;;;5048890;28;20384;-58
2023/05/18 10:35:55;;;;;;;6.47;1.85;;;16.90;90.20;;;;;;5067040;28;20083;-53
2023/05/18 10:38:22;;;;;;;5.22;1.83;;;17.00;90.40;;;;;;5066840;28;20158;-56
2023/05/18 10:40:51;;;;;;;7.82;1.83;;;17.20;90.80;;;;;;5066262;28;20037;-53
2023/05/18 10:43:19;;;;;;;5.82;2.20;;;17.40;90.00;;;;;;5065862;28;20103;-52
2023/05/18 10:45:58;;;;;;;7.00;2.05;;;17.50;89.90;;;;;;5066936;28;20299;-55
2023/05/18 10:48:26;;;;;;;3.88;1.50;;;17.50;87.70;;;;;;5066553;28;20079;-55
2023/05/18 10:50:53;;;;;;;6.72;1.80;;;17.30;89.30;;;;;;5067026;28;20036;-55
2023/05/18 10:53:21;;;;;;;4.15;1.67;;;17.30;90.00;;;;;;5066689;28;20044;-55
2023/05/18 10:55:48;;;;;;;7.05;1.90;;;17.50;89.40;;;;;;5071340;28;20447;-55
2023/05/18 10:58:17;;;;;;;6.97;2.00;;;17.50;89.30;;;;;;5074543;28;20053;-54
2023/05/18 11:00:50;;;;;;;4.85;2.03;;;17.40;88.40;;;;;;5076679;28;20047;-56
2023/05/18 11:03:17;;;;;;;9.70;2.17;;;17.10;88.90;;;;;;5058993;28;20402;-55
2023/05/18 11:05:47;;;;;;;6.40;1.95;;;17.20;90.00;;;;;;5058242;28;20040;-55
2023/05/18 11:08:24;;;;;;;3.50;1.52;;;17.40;89.90;;;;;;5075188;28;20052;-55
2023/05/18 11:11:02;;;;;;;5.20;1.67;;;17.60;89.00;;;;;;5067660;28;20049;-55
2023/05/18 11:13:30;;;;;;;5.85;1.80;;;17.50;89.00;;;;;;5047923;28;20138;-52
2023/05/18 11:15:57;;;;;;;8.82;2.30;;;17.50;89.80;;;;;;5066145;28;20123;-54
2023/05/18 11:18:50;;;;;;;5.80;2.00;;;17.50;90.00;;;;;;5067078;28;20044;-55
2023/05/18 11:21:18;;;;;;;6.43;1.90;;;17.70;89.20;;;;;;5067327;28;20064;-56
2023/05/18 11:24:22;;;;;;;7.65;2.00;;;17.90;89.60;;;;;;5067893;28;20139;-54
2023/05/18 11:26:50;;;;;;;6.03;2.00;;;18.10;87.00;;;;;;5067287;28;20530;-53
2023/05/18 11:29:17;;;;;;;5.65;1.73;;;18.00;88.40;;;;;;5066362;28;20119;-56
2023/05/18 11:31:56;;;;;;;6.75;1.90;;;18.00;88.30;;;;;;5067390;28;20126;-51
2023/05/18 11:34:51;;;;;;;8.05;2.80;;;18.10;88.20;;;;;;5067188;28;20048;-55
2023/05/18 11:37:37;;;;;;;6.72;2.22;;;18.30;89.40;;;;;;5046177;28;20052;-55
2023/05/18 11:40:08;;;;;;;7.60;2.20;;;18.40;89.90;;;;;;5067689;28;20051;-57
2023/05/18 11:42:34;;;;;;;5.88;1.92;;;18.50;90.10;;;;;;5066792;28;20040;-53
2023/05/18 11:45:11;;;;;;;9.48;2.13;;;18.30;89.90;;;;;;5049461;28;20052;-53
2023/05/18 11:47:39;;;;;;;6.82;2.75;;;18.10;89.70;;;;;;5067185;28;20055;-59
2023/05/18 11:50:10;;;;;;;5.95;2.08;;;18.00;90.20;;;;;;5066611;28;20151;-60
2023/05/18 11:52:51;;;;;;;6.80;2.40;;;18.00;90.20;;;;;;5064700;28;20119;-59
2023/05/18 11:55:19;;;;;;;7.15;2.42;;;17.80;89.50;;;;;;5063966;28;20479;-58
2023/05/18 11:57:48;;;;;;;9.82;2.35;;;17.80;90.20;;;;;;5063888;28;20143;-60
2023/05/18 12:00:15;;;;;;;6.57;2.42;;;17.90;90.10;;;;;;5045907;28;20131;-55
2023/05/18 12:02:44;;;;;;;4.90;2.00;;;17.80;89.90;;;;;;5064264;28;20074;-57
2023/05/18 12:05:09;;;;;;;7.70;2.42;;;17.90;90.00;;;;;;5064322;28;20384;-57
2023/05/18 12:07:37;;;;;;;7.85;2.75;;;18.10;90.20;;;;;;5065776;28;20047;-60
2023/05/18 12:10:05;;;;;;;5.20;2.05;;;18.20;90.30;;;;;;5065270;28;20045;-59
2023/05/18 12:12:32;;;;;;;8.50;2.30;;;18.20;90.20;;;;;;5064720;28;20068;-54
2023/05/18 12:15:04;;;;;;;5.75;2.00;;;18.20;90.20;;;;;;5065487;28;20044;-53
2023/05/18 12:17:46;;;;;;;8.27;2.63;;;18.40;89.60;;;;;;5047740;28;21354;-60
2023/05/18 12:20:20;;;;;;;6.53;2.65;;;18.40;90.60;;;;;;5065170;28;20056;-54
2023/05/18 12:22:52;;;;;;;7.25;2.42;;;18.10;90.40;;;;;;5065481;28;20057;-60
2023/05/18 12:25:18;;;;;;;5.78;2.28;;;17.80;90.90;;;;;;5065252;28;20528;-61
2023/05/18 12:27:48;;;;;;;7.00;2.30;;;17.80;91.10;;;;;;5064406;28;20067;-56
2023/05/18 12:30:33;;;;;;;8.43;2.70;;;18.00;90.90;;;;;;5047178;28;20041;-57
2023/05/18 12:33:01;;;;;;;8.40;2.40;;;17.90;90.90;;;;;;5047532;28;20491;-60
2023/05/18 12:35:28;;;;;;;6.75;2.20;;;18.00;91.40;;;;;;5047066;28;20608;-58
2023/05/18 12:37:54;;;;;;;7.03;2.10;;;18.10;91.20;;;;;;5065497;28;20032;-60
2023/05/18 12:40:21;;;;;;;6.97;2.60;;;18.10;91.30;;;;;;5065431;28;20399;-53
2023/05/18 12:42:53;;;;;;;9.77;2.30;;;18.30;91.00;;;;;;5064051;28;20044;-61
2023/05/18 12:45:21;;;;;;;6.85;2.85;;;18.40;90.90;;;;;;5065195;28;20048;-61
2023/05/18 12:47:52;;;;;;;7.22;3.10;;;18.20;91.60;;;;;;5065049;28;20419;-60
2023/05/18 12:50:19;;;;;;;9.43;2.72;;;18.20;91.30;;;;;;5065178;28;20680;-61
2023/05/18 12:52:44;;;;;;;9.77;2.58;;;18.40;91.30;;;;;;5065272;28;20036;-58
2023/05/18 12:55:21;;;;;;;8.02;2.75;;;18.60;91.30;;;;;;5065336;28;20511;-57